sensor_id;sensor_type;location;lat;lon;timestamp;pressure;altitude;pressure_sealevel;temperature;humidity
41222;BME280;26952;42.884;23.918;2022-07-03T00:01:59;96258.09;;;19.34;nan
41222;BME280;26952;42.884;23.918;2022-07-03T00:04:25;96248.84;;;19.30;nan
41222;BME280;26952;42.884;23.918;2022-07-03T00:06:53;96241.75;;;19.36;nan
41222;BME280;26952;42.884;23.918;2022-07-03T00:09:18;96240.97;;;19.35;nan
41222;BME280;26952;42.884;23.918;2022-07-03T00:11:45;96237.06;;;19.24;nan
41222;BME280;26952;42.884;23.918;2022-07-03T00:14:10;96234.59;;;19.23;nan
41222;BME280;26952;42.884;23.918;2022-07-03T00:16:36;96228.25;;;19.17;nan
41222;BME280;26952;42.884;23.918;2022-07-03T00:19:02;96234.41;;;19.18;nan
41222;BME280;26952;42.884;23.918;2022-07-03T00:21:49;96234.16;;;19.26;nan
41222;BME280;26952;42.884;23.918;2022-07-03T00:24:24;96247.38;;;19.27;nan
41222;BME280;26952;42.884;23.918;2022-07-03T00:26:52;96231.50;;;19.19;nan
41222;BME280;26952;42.884;23.918;2022-07-03T00:29:21;96230.88;;;19.24;nan
41222;BME280;26952;42.884;23.918;2022-07-03T00:31:48;96242.81;;;19.28;nan
41222;BME280;26952;42.884;23.918;2022-07-03T00:34:15;96232.31;;;19.26;nan
41222;BME280;26952;42.884;23.918;2022-07-03T00:36:42;96229.22;;;19.23;nan
41222;BME280;26952;42.884;23.918;2022-07-03T00:39:07;96228.56;;;19.27;nan
41222;BME280;26952;42.884;23.918;2022-07-03T00:41:34;96226.31;;;19.24;nan
41222;BME280;26952;42.884;23.918;2022-07-03T00:44:01;96232.06;;;19.35;nan
41222;BME280;26952;42.884;23.918;2022-07-03T00:46:28;96212.69;;;19.26;nan
41222;BME280;26952;42.884;23.918;2022-07-03T00:48:55;96213.94;;;19.23;nan
41222;BME280;26952;42.884;23.918;2022-07-03T00:51:23;96215.03;;;19.16;nan
41222;BME280;26952;42.884;23.918;2022-07-03T00:53:53;96206.81;;;19.11;nan
41222;BME280;26952;42.884;23.918;2022-07-03T00:56:23;96208.19;;;19.20;nan
41222;BME280;26952;42.884;23.918;2022-07-03T00:58:52;96193.41;;;19.11;nan
41222;BME280;26952;42.884;23.918;2022-07-03T01:01:19;96216.84;;;19.22;nan
41222;BME280;26952;42.884;23.918;2022-07-03T01:03:45;96212.69;;;19.26;nan
41222;BME280;26952;42.884;23.918;2022-07-03T01:06:14;96214.91;;;19.36;nan
41222;BME280;26952;42.884;23.918;2022-07-03T01:08:50;96208.91;;;19.40;nan
41222;BME280;26952;42.884;23.918;2022-07-03T01:11:35;96210.16;;;19.38;nan
41222;BME280;26952;42.884;23.918;2022-07-03T01:16:40;96204.63;;;19.26;nan
41222;BME280;26952;42.884;23.918;2022-07-03T01:24:53;96202.81;;;19.20;nan
41222;BME280;26952;42.884;23.918;2022-07-03T01:30:29;96198.94;;;19.16;nan
41222;BME280;26952;42.884;23.918;2022-07-03T01:33:01;96206.56;;;19.19;nan
41222;BME280;26952;42.884;23.918;2022-07-03T01:35:40;96204.84;;;19.24;nan
41222;BME280;26952;42.884;23.918;2022-07-03T01:38:10;96205.25;;;19.28;nan
41222;BME280;26952;42.884;23.918;2022-07-03T01:40:38;96202.75;;;19.33;nan
41222;BME280;26952;42.884;23.918;2022-07-03T01:43:06;96203.59;;;19.27;nan
41222;BME280;26952;42.884;23.918;2022-07-03T01:45:36;96206.50;;;19.25;nan
41222;BME280;26952;42.884;23.918;2022-07-03T01:48:02;96194.31;;;19.23;nan
41222;BME280;26952;42.884;23.918;2022-07-03T01:50:28;96196.84;;;19.18;nan
41222;BME280;26952;42.884;23.918;2022-07-03T01:52:54;96207.13;;;19.21;nan
41222;BME280;26952;42.884;23.918;2022-07-03T01:55:22;96202.03;;;19.13;nan
41222;BME280;26952;42.884;23.918;2022-07-03T01:57:50;96209.81;;;19.21;nan
41222;BME280;26952;42.884;23.918;2022-07-03T02:00:18;96210.53;;;19.10;nan
41222;BME280;26952;42.884;23.918;2022-07-03T02:02:52;96216.53;;;19.05;nan
41222;BME280;26952;42.884;23.918;2022-07-03T02:10:39;96207.47;;;19.00;nan
41222;BME280;26952;42.884;23.918;2022-07-03T02:13:16;96204.22;;;18.98;nan
41222;BME280;26952;42.884;23.918;2022-07-03T02:15:43;96202.56;;;18.97;nan
41222;BME280;26952;42.884;23.918;2022-07-03T02:18:36;96192.44;;;18.99;nan
41222;BME280;26952;42.884;23.918;2022-07-03T02:21:15;96192.81;;;19.02;nan
41222;BME280;26952;42.884;23.918;2022-07-03T02:26:33;96200.53;;;18.92;nan
41222;BME280;26952;42.884;23.918;2022-07-03T02:29:04;96192.28;;;18.87;nan
41222;BME280;26952;42.884;23.918;2022-07-03T02:31:38;96193.97;;;18.88;nan
41222;BME280;26952;42.884;23.918;2022-07-03T02:34:06;96206.72;;;18.93;nan
41222;BME280;26952;42.884;23.918;2022-07-03T02:36:34;96202.13;;;19.00;nan
41222;BME280;26952;42.884;23.918;2022-07-03T02:39:00;96198.50;;;18.88;nan
41222;BME280;26952;42.884;23.918;2022-07-03T02:41:43;96202.63;;;18.84;nan
41222;BME280;26952;42.884;23.918;2022-07-03T02:44:21;96208.66;;;18.79;nan
41222;BME280;26952;42.884;23.918;2022-07-03T02:47:00;96207.00;;;18.78;nan
41222;BME280;26952;42.884;23.918;2022-07-03T02:52:34;96216.66;;;18.86;nan
41222;BME280;26952;42.884;23.918;2022-07-03T02:55:39;96219.53;;;18.91;nan
41222;BME280;26952;42.884;23.918;2022-07-03T03:01:03;96228.16;;;18.99;nan
41222;BME280;26952;42.884;23.918;2022-07-03T03:03:32;96228.53;;;19.03;nan
41222;BME280;26952;42.884;23.918;2022-07-03T03:06:11;96224.03;;;18.97;nan
41222;BME280;26952;42.884;23.918;2022-07-03T03:08:48;96229.31;;;19.10;nan
41222;BME280;26952;42.884;23.918;2022-07-03T03:11:44;96233.00;;;19.15;nan
41222;BME280;26952;42.884;23.918;2022-07-03T03:14:14;96233.84;;;19.16;nan
41222;BME280;26952;42.884;23.918;2022-07-03T03:16:50;96241.03;;;19.22;nan
41222;BME280;26952;42.884;23.918;2022-07-03T03:19:20;96238.94;;;19.24;nan
41222;BME280;26952;42.884;23.918;2022-07-03T03:24:37;96241.13;;;19.40;nan
41222;BME280;26952;42.884;23.918;2022-07-03T03:27:04;96235.06;;;19.51;nan
41222;BME280;26952;42.884;23.918;2022-07-03T03:29:29;96224.66;;;19.61;nan
41222;BME280;26952;42.884;23.918;2022-07-03T03:31:55;96232.66;;;19.68;nan
41222;BME280;26952;42.884;23.918;2022-07-03T03:34:21;96229.31;;;19.72;nan
41222;BME280;26952;42.884;23.918;2022-07-03T03:36:47;96235.72;;;19.71;nan
41222;BME280;26952;42.884;23.918;2022-07-03T03:39:13;96234.69;;;19.72;nan
41222;BME280;26952;42.884;23.918;2022-07-03T03:41:38;96226.06;;;19.64;nan
41222;BME280;26952;42.884;23.918;2022-07-03T03:44:04;96234.78;;;19.59;nan
41222;BME280;26952;42.884;23.918;2022-07-03T03:46:29;96226.91;;;19.64;nan
41222;BME280;26952;42.884;23.918;2022-07-03T03:48:56;96230.94;;;19.73;nan
41222;BME280;26952;42.884;23.918;2022-07-03T03:51:21;96225.66;;;19.85;nan
41222;BME280;26952;42.884;23.918;2022-07-03T03:53:47;96220.41;;;19.96;nan
41222;BME280;26952;42.884;23.918;2022-07-03T03:56:12;96224.88;;;20.02;nan
41222;BME280;26952;42.884;23.918;2022-07-03T03:58:42;96224.44;;;20.05;nan
41222;BME280;26952;42.884;23.918;2022-07-03T04:01:09;96225.19;;;20.12;nan
41222;BME280;26952;42.884;23.918;2022-07-03T04:03:35;96237.19;;;20.16;nan
41222;BME280;26952;42.884;23.918;2022-07-03T04:06:02;96225.03;;;20.07;nan
41222;BME280;26952;42.884;23.918;2022-07-03T04:08:28;96228.94;;;20.11;nan
41222;BME280;26952;42.884;23.918;2022-07-03T04:10:55;96233.44;;;20.17;nan
41222;BME280;26952;42.884;23.918;2022-07-03T04:13:20;96243.59;;;20.15;nan
41222;BME280;26952;42.884;23.918;2022-07-03T04:15:50;96241.66;;;20.22;nan
41222;BME280;26952;42.884;23.918;2022-07-03T04:18:16;96231.28;;;20.26;nan
41222;BME280;26952;42.884;23.918;2022-07-03T04:20:42;96227.78;;;20.25;nan
41222;BME280;26952;42.884;23.918;2022-07-03T04:23:07;96226.53;;;20.28;nan
41222;BME280;26952;42.884;23.918;2022-07-03T04:25:33;96231.53;;;20.42;nan
41222;BME280;26952;42.884;23.918;2022-07-03T04:27:58;96227.34;;;20.46;nan
41222;BME280;26952;42.884;23.918;2022-07-03T04:30:25;96229.25;;;20.57;nan
41222;BME280;26952;42.884;23.918;2022-07-03T04:32:50;96231.66;;;20.65;nan
41222;BME280;26952;42.884;23.918;2022-07-03T04:35:16;96228.81;;;20.60;nan
41222;BME280;26952;42.884;23.918;2022-07-03T04:37:42;96238.69;;;20.48;nan
41222;BME280;26952;42.884;23.918;2022-07-03T04:40:08;96228.53;;;20.50;nan
41222;BME280;26952;42.884;23.918;2022-07-03T04:42:34;96227.19;;;20.59;nan
41222;BME280;26952;42.884;23.918;2022-07-03T04:45:00;96224.03;;;20.44;nan
41222;BME280;26952;42.884;23.918;2022-07-03T04:47:25;96231.53;;;20.42;nan
41222;BME280;26952;42.884;23.918;2022-07-03T04:49:51;96227.47;;;20.33;nan
41222;BME280;26952;42.884;23.918;2022-07-03T04:52:16;96243.16;;;20.36;nan
41222;BME280;26952;42.884;23.918;2022-07-03T04:54:42;96234.38;;;20.29;nan
41222;BME280;26952;42.884;23.918;2022-07-03T04:57:08;96242.72;;;20.39;nan
41222;BME280;26952;42.884;23.918;2022-07-03T04:59:34;96244.69;;;20.50;nan
41222;BME280;26952;42.884;23.918;2022-07-03T05:01:59;96236.75;;;20.55;nan
41222;BME280;26952;42.884;23.918;2022-07-03T05:04:24;96220.44;;;20.68;nan
41222;BME280;26952;42.884;23.918;2022-07-03T05:06:50;96229.56;;;20.67;nan
41222;BME280;26952;42.884;23.918;2022-07-03T05:09:15;96235.25;;;20.78;nan
41222;BME280;26952;42.884;23.918;2022-07-03T05:11:40;96239.63;;;20.90;nan
41222;BME280;26952;42.884;23.918;2022-07-03T05:14:06;96244.25;;;21.01;nan
41222;BME280;26952;42.884;23.918;2022-07-03T05:16:32;96235.31;;;21.07;nan
41222;BME280;26952;42.884;23.918;2022-07-03T05:18:57;96239.06;;;21.18;nan
41222;BME280;26952;42.884;23.918;2022-07-03T05:21:23;96231.91;;;21.12;nan
41222;BME280;26952;42.884;23.918;2022-07-03T05:23:48;96244.22;;;21.19;nan
41222;BME280;26952;42.884;23.918;2022-07-03T05:26:14;96244.31;;;21.13;nan
41222;BME280;26952;42.884;23.918;2022-07-03T05:28:39;96256.00;;;21.07;nan
41222;BME280;26952;42.884;23.918;2022-07-03T05:31:05;96245.56;;;20.99;nan
41222;BME280;26952;42.884;23.918;2022-07-03T05:33:31;96256.69;;;21.02;nan
41222;BME280;26952;42.884;23.918;2022-07-03T05:35:57;96262.66;;;21.04;nan
41222;BME280;26952;42.884;23.918;2022-07-03T05:38:23;96247.25;;;21.11;nan
41222;BME280;26952;42.884;23.918;2022-07-03T05:41:17;96259.91;;;21.22;nan
41222;BME280;26952;42.884;23.918;2022-07-03T05:43:43;96264.84;;;21.25;nan
41222;BME280;26952;42.884;23.918;2022-07-03T05:46:09;96263.34;;;21.29;nan
41222;BME280;26952;42.884;23.918;2022-07-03T05:48:34;96263.72;;;21.33;nan
41222;BME280;26952;42.884;23.918;2022-07-03T05:50:59;96261.75;;;21.40;nan
41222;BME280;26952;42.884;23.918;2022-07-03T05:53:25;96258.00;;;21.41;nan
41222;BME280;26952;42.884;23.918;2022-07-03T05:55:51;96261.34;;;21.25;nan
41222;BME280;26952;42.884;23.918;2022-07-03T05:58:16;96267.53;;;21.14;nan
41222;BME280;26952;42.884;23.918;2022-07-03T06:00:42;96269.69;;;21.05;nan
41222;BME280;26952;42.884;23.918;2022-07-03T06:03:08;96269.19;;;20.97;nan
41222;BME280;26952;42.884;23.918;2022-07-03T06:05:33;96275.31;;;20.86;nan
41222;BME280;26952;42.884;23.918;2022-07-03T06:07:59;96262.00;;;20.73;nan
41222;BME280;26952;42.884;23.918;2022-07-03T06:10:25;96284.56;;;20.90;nan
41222;BME280;26952;42.884;23.918;2022-07-03T06:12:52;96276.13;;;21.04;nan
41222;BME280;26952;42.884;23.918;2022-07-03T06:15:17;96276.53;;;21.19;nan
41222;BME280;26952;42.884;23.918;2022-07-03T06:17:43;96268.06;;;21.34;nan
41222;BME280;26952;42.884;23.918;2022-07-03T06:20:11;96274.91;;;21.48;nan
41222;BME280;26952;42.884;23.918;2022-07-03T06:22:38;96264.94;;;21.48;nan
41222;BME280;26952;42.884;23.918;2022-07-03T06:25:04;96277.84;;;21.58;nan
41222;BME280;26952;42.884;23.918;2022-07-03T06:27:30;96279.63;;;21.64;nan
41222;BME280;26952;42.884;23.918;2022-07-03T06:29:55;96273.31;;;21.70;nan
41222;BME280;26952;42.884;23.918;2022-07-03T06:32:20;96264.44;;;21.81;nan
41222;BME280;26952;42.884;23.918;2022-07-03T06:34:46;96268.69;;;22.00;nan
41222;BME280;26952;42.884;23.918;2022-07-03T06:37:12;96273.19;;;22.18;nan
41222;BME280;26952;42.884;23.918;2022-07-03T06:39:38;96277.63;;;22.35;nan
41222;BME280;26952;42.884;23.918;2022-07-03T06:42:04;96276.56;;;22.36;nan
41222;BME280;26952;42.884;23.918;2022-07-03T06:44:29;96268.69;;;22.46;nan
41222;BME280;26952;42.884;23.918;2022-07-03T06:46:55;96273.88;;;22.59;nan
41222;BME280;26952;42.884;23.918;2022-07-03T06:49:20;96273.63;;;22.72;nan
41222;BME280;26952;42.884;23.918;2022-07-03T06:51:46;96282.03;;;22.87;nan
41222;BME280;26952;42.884;23.918;2022-07-03T06:54:11;96278.50;;;22.98;nan
41222;BME280;26952;42.884;23.918;2022-07-03T06:56:37;96277.16;;;23.12;nan
41222;BME280;26952;42.884;23.918;2022-07-03T06:59:02;96271.59;;;23.31;nan
41222;BME280;26952;42.884;23.918;2022-07-03T07:01:28;96276.72;;;23.44;nan
41222;BME280;26952;42.884;23.918;2022-07-03T07:03:54;96265.41;;;23.47;nan
41222;BME280;26952;42.884;23.918;2022-07-03T07:06:19;96276.78;;;23.20;nan
41222;BME280;26952;42.884;23.918;2022-07-03T07:08:45;96285.41;;;23.06;nan
41222;BME280;26952;42.884;23.918;2022-07-03T07:11:11;96264.91;;;22.93;nan
41222;BME280;26952;42.884;23.918;2022-07-03T07:13:36;96273.38;;;22.85;nan
41222;BME280;26952;42.884;23.918;2022-07-03T07:16:02;96270.13;;;22.60;nan
41222;BME280;26952;42.884;23.918;2022-07-03T07:18:27;96269.63;;;22.63;nan
41222;BME280;26952;42.884;23.918;2022-07-03T07:20:52;96265.81;;;22.87;nan
41222;BME280;26952;42.884;23.918;2022-07-03T07:23:18;96278.78;;;23.13;nan
41222;BME280;26952;42.884;23.918;2022-07-03T07:25:43;96273.09;;;23.38;nan
41222;BME280;26952;42.884;23.918;2022-07-03T07:28:09;96268.41;;;23.78;nan
41222;BME280;26952;42.884;23.918;2022-07-03T07:30:34;96267.06;;;24.09;nan
41222;BME280;26952;42.884;23.918;2022-07-03T07:32:59;96269.16;;;24.40;nan
41222;BME280;26952;42.884;23.918;2022-07-03T07:35:25;96273.31;;;24.64;nan
41222;BME280;26952;42.884;23.918;2022-07-03T07:37:50;96272.03;;;24.88;nan
41222;BME280;26952;42.884;23.918;2022-07-03T07:40:16;96267.81;;;24.97;nan
41222;BME280;26952;42.884;23.918;2022-07-03T07:42:41;96268.97;;;25.01;nan
41222;BME280;26952;42.884;23.918;2022-07-03T07:45:08;96261.38;;;25.25;nan
41222;BME280;26952;42.884;23.918;2022-07-03T07:47:34;96257.28;;;25.70;nan
41222;BME280;26952;42.884;23.918;2022-07-03T07:49:59;96265.31;;;26.19;nan
41222;BME280;26952;42.884;23.918;2022-07-03T07:52:25;96256.25;;;26.45;nan
41222;BME280;26952;42.884;23.918;2022-07-03T07:54:50;96255.16;;;26.82;nan
41222;BME280;26952;42.884;23.918;2022-07-03T07:57:15;96253.69;;;27.21;nan
41222;BME280;26952;42.884;23.918;2022-07-03T07:59:41;96254.28;;;27.29;nan
41222;BME280;26952;42.884;23.918;2022-07-03T08:02:06;96242.91;;;27.52;nan
41222;BME280;26952;42.884;23.918;2022-07-03T08:04:50;96241.13;;;28.17;nan
41222;BME280;26952;42.884;23.918;2022-07-03T08:07:34;96238.34;;;28.32;nan
41222;BME280;26952;42.884;23.918;2022-07-03T08:10:00;96232.63;;;28.54;nan
41222;BME280;26952;42.884;23.918;2022-07-03T08:12:25;96237.25;;;28.59;nan
41222;BME280;26952;42.884;23.918;2022-07-03T08:14:51;96243.25;;;28.50;nan
41222;BME280;26952;42.884;23.918;2022-07-03T08:17:16;96248.63;;;27.45;nan
41222;BME280;26952;42.884;23.918;2022-07-03T08:19:41;96253.84;;;26.95;nan
41222;BME280;26952;42.884;23.918;2022-07-03T08:22:07;96238.56;;;26.79;nan
41222;BME280;26952;42.884;23.918;2022-07-03T08:24:32;96245.78;;;27.10;nan
41222;BME280;26952;42.884;23.918;2022-07-03T08:26:58;96245.38;;;27.53;nan
41222;BME280;26952;42.884;23.918;2022-07-03T08:29:23;96242.59;;;27.38;nan
41222;BME280;26952;42.884;23.918;2022-07-03T08:31:49;96257.97;;;27.07;nan
41222;BME280;26952;42.884;23.918;2022-07-03T08:34:14;96250.31;;;27.81;nan
41222;BME280;26952;42.884;23.918;2022-07-03T08:36:43;96251.88;;;28.93;nan
41222;BME280;26952;42.884;23.918;2022-07-03T08:39:08;96259.25;;;29.56;nan
41222;BME280;26952;42.884;23.918;2022-07-03T08:41:36;96258.78;;;29.93;nan
41222;BME280;26952;42.884;23.918;2022-07-03T08:44:03;96251.69;;;30.25;nan
41222;BME280;26952;42.884;23.918;2022-07-03T08:46:31;96260.84;;;30.44;nan
41222;BME280;26952;42.884;23.918;2022-07-03T08:48:59;96251.72;;;30.82;nan
41222;BME280;26952;42.884;23.918;2022-07-03T08:51:26;96248.81;;;31.45;nan
41222;BME280;26952;42.884;23.918;2022-07-03T08:53:53;96248.25;;;32.03;nan
41222;BME280;26952;42.884;23.918;2022-07-03T08:56:21;96247.53;;;31.37;nan
41222;BME280;26952;42.884;23.918;2022-07-03T08:58:47;96245.56;;;31.19;nan
41222;BME280;26952;42.884;23.918;2022-07-03T09:01:15;96243.56;;;31.25;nan
41222;BME280;26952;42.884;23.918;2022-07-03T09:03:42;96244.81;;;31.56;nan
41222;BME280;26952;42.884;23.918;2022-07-03T09:06:08;96237.53;;;32.39;nan
41222;BME280;26952;42.884;23.918;2022-07-03T09:08:34;96239.16;;;32.40;nan
41222;BME280;26952;42.884;23.918;2022-07-03T09:11:01;96226.41;;;32.63;nan
41222;BME280;26952;42.884;23.918;2022-07-03T09:13:28;96237.78;;;32.56;nan
41222;BME280;26952;42.884;23.918;2022-07-03T09:15:54;96235.72;;;32.48;nan
41222;BME280;26952;42.884;23.918;2022-07-03T09:18:37;96232.94;;;32.67;nan
41222;BME280;26952;42.884;23.918;2022-07-03T09:21:03;96233.22;;;32.79;nan
41222;BME280;26952;42.884;23.918;2022-07-03T09:23:35;96219.31;;;32.75;nan
41222;BME280;26952;42.884;23.918;2022-07-03T09:26:02;96231.31;;;32.79;nan
41222;BME280;26952;42.884;23.918;2022-07-03T09:28:51;96229.41;;;32.93;nan
41222;BME280;26952;42.884;23.918;2022-07-03T09:31:21;96237.03;;;33.10;nan
41222;BME280;26952;42.884;23.918;2022-07-03T09:44:43;96221.66;;;32.82;nan
41222;BME280;26952;42.884;23.918;2022-07-03T09:49:56;96217.06;;;32.77;nan
41222;BME280;26952;42.884;23.918;2022-07-03T09:55:20;96218.34;;;33.12;nan
41222;BME280;26952;42.884;23.918;2022-07-03T10:00:28;96207.13;;;33.22;nan
41222;BME280;26952;42.884;23.918;2022-07-03T10:05:28;96202.97;;;33.38;nan
41222;BME280;26952;42.884;23.918;2022-07-03T10:07:57;96200.91;;;33.93;nan
41222;BME280;26952;42.884;23.918;2022-07-03T10:10:25;96196.41;;;34.41;nan
41222;BME280;26952;42.884;23.918;2022-07-03T10:12:52;96190.44;;;34.78;nan
41222;BME280;26952;42.884;23.918;2022-07-03T10:15:19;96192.91;;;35.27;nan
41222;BME280;26952;42.884;23.918;2022-07-03T10:17:50;96185.53;;;34.97;nan
41222;BME280;26952;42.884;23.918;2022-07-03T10:20:25;96194.16;;;34.73;nan
41222;BME280;26952;42.884;23.918;2022-07-03T10:22:52;96190.78;;;35.16;nan
41222;BME280;26952;42.884;23.918;2022-07-03T10:25:18;96178.03;;;35.37;nan
41222;BME280;26952;42.884;23.918;2022-07-03T10:27:47;96182.78;;;34.97;nan
41222;BME280;26952;42.884;23.918;2022-07-03T10:30:18;96180.63;;;34.55;nan
41222;BME280;26952;42.884;23.918;2022-07-03T10:32:45;96169.34;;;34.65;nan
41222;BME280;26952;42.884;23.918;2022-07-03T10:35:36;96169.59;;;34.24;nan
41222;BME280;26952;42.884;23.918;2022-07-03T10:43:29;96165.63;;;33.50;nan
41222;BME280;26952;42.884;23.918;2022-07-03T10:46:15;96142.41;;;34.45;nan
41222;BME280;26952;42.884;23.918;2022-07-03T10:51:23;96142.84;;;34.38;nan
41222;BME280;26952;42.884;23.918;2022-07-03T10:53:49;96141.63;;;34.53;nan
41222;BME280;26952;42.884;23.918;2022-07-03T10:56:15;96144.91;;;34.63;nan
41222;BME280;26952;42.884;23.918;2022-07-03T10:58:58;96149.13;;;35.00;nan
41222;BME280;26952;42.884;23.918;2022-07-03T11:01:28;96143.53;;;34.83;nan
41222;BME280;26952;42.884;23.918;2022-07-03T11:04:00;96143.38;;;34.88;nan
41222;BME280;26952;42.884;23.918;2022-07-03T11:09:14;96132.78;;;32.23;nan
41222;BME280;26952;42.884;23.918;2022-07-03T11:11:41;96139.19;;;32.19;nan
41222;BME280;26952;42.884;23.918;2022-07-03T11:14:27;96142.78;;;32.01;nan
41222;BME280;26952;42.884;23.918;2022-07-03T11:17:20;96139.19;;;32.19;nan
41222;BME280;26952;42.884;23.918;2022-07-03T11:19:50;96135.13;;;32.30;nan
41222;BME280;26952;42.884;23.918;2022-07-03T11:22:49;96139.25;;;32.14;nan
41222;BME280;26952;42.884;23.918;2022-07-03T11:25:17;96143.22;;;32.08;nan
41222;BME280;26952;42.884;23.918;2022-07-03T11:27:42;96135.25;;;31.93;nan
41222;BME280;26952;42.884;23.918;2022-07-03T11:30:08;96138.34;;;32.05;nan
41222;BME280;26952;42.884;23.918;2022-07-03T11:32:44;96137.25;;;31.87;nan
41222;BME280;26952;42.884;23.918;2022-07-03T11:38:27;96135.38;;;31.69;nan
41222;BME280;26952;42.884;23.918;2022-07-03T11:40:54;96136.91;;;31.57;nan
41222;BME280;26952;42.884;23.918;2022-07-03T11:43:20;96133.78;;;30.65;nan
41222;BME280;26952;42.884;23.918;2022-07-03T11:45:49;96143.66;;;30.61;nan
41222;BME280;26952;42.884;23.918;2022-07-03T11:48:20;96138.81;;;30.30;nan
41222;BME280;26952;42.884;23.918;2022-07-03T11:50:47;96128.13;;;30.05;nan
41222;BME280;26952;42.884;23.918;2022-07-03T11:53:24;96128.81;;;30.44;nan
41222;BME280;26952;42.884;23.918;2022-07-03T11:58:17;96126.09;;;31.09;nan
41222;BME280;26952;42.884;23.918;2022-07-03T12:00:42;96140.63;;;31.66;nan
41222;BME280;26952;42.884;23.918;2022-07-03T12:03:08;96128.69;;;31.57;nan
41222;BME280;26952;42.884;23.918;2022-07-03T12:05:33;96124.69;;;31.68;nan
41222;BME280;26952;42.884;23.918;2022-07-03T12:08:05;96128.31;;;31.63;nan
41222;BME280;26952;42.884;23.918;2022-07-03T12:10:40;96126.78;;;32.08;nan
41222;BME280;26952;42.884;23.918;2022-07-03T12:13:22;96126.59;;;32.31;nan
41222;BME280;26952;42.884;23.918;2022-07-03T12:15:48;96124.22;;;32.71;nan
41222;BME280;26952;42.884;23.918;2022-07-03T12:18:15;96118.72;;;32.57;nan
41222;BME280;26952;42.884;23.918;2022-07-03T12:20:40;96122.28;;;32.71;nan
41222;BME280;26952;42.884;23.918;2022-07-03T12:23:05;96112.53;;;32.92;nan
41222;BME280;26952;42.884;23.918;2022-07-03T12:25:31;96113.03;;;32.67;nan
41222;BME280;26952;42.884;23.918;2022-07-03T12:27:57;96103.69;;;32.95;nan
41222;BME280;26952;42.884;23.918;2022-07-03T12:30:23;96111.47;;;33.15;nan
41222;BME280;26952;42.884;23.918;2022-07-03T12:32:52;96103.50;;;32.92;nan
41222;BME280;26952;42.884;23.918;2022-07-03T12:35:22;96099.84;;;32.83;nan
41222;BME280;26952;42.884;23.918;2022-07-03T12:37:47;96096.78;;;32.84;nan
41222;BME280;26952;42.884;23.918;2022-07-03T12:40:13;96094.34;;;32.69;nan
41222;BME280;26952;42.884;23.918;2022-07-03T12:42:51;96096.16;;;32.87;nan
41222;BME280;26952;42.884;23.918;2022-07-03T12:45:19;96089.03;;;33.13;nan
41222;BME280;26952;42.884;23.918;2022-07-03T12:47:45;96080.69;;;33.18;nan
41222;BME280;26952;42.884;23.918;2022-07-03T12:50:11;96075.31;;;33.13;nan
41222;BME280;26952;42.884;23.918;2022-07-03T12:52:55;96083.06;;;32.84;nan
41222;BME280;26952;42.884;23.918;2022-07-03T12:55:27;96084.16;;;33.10;nan
41222;BME280;26952;42.884;23.918;2022-07-03T12:58:15;96081.81;;;33.39;nan
41222;BME280;26952;42.884;23.918;2022-07-03T13:01:00;96083.59;;;33.57;nan
41222;BME280;26952;42.884;23.918;2022-07-03T13:03:27;96083.47;;;33.85;nan
41222;BME280;26952;42.884;23.918;2022-07-03T13:05:53;96071.56;;;33.67;nan
41222;BME280;26952;42.884;23.918;2022-07-03T13:08:18;96078.53;;;33.15;nan
41222;BME280;26952;42.884;23.918;2022-07-03T13:10:44;96069.81;;;33.35;nan
41222;BME280;26952;42.884;23.918;2022-07-03T13:13:19;96070.78;;;33.53;nan
41222;BME280;26952;42.884;23.918;2022-07-03T13:15:44;96076.94;;;33.36;nan
41222;BME280;26952;42.884;23.918;2022-07-03T13:18:11;96065.34;;;33.39;nan
41222;BME280;26952;42.884;23.918;2022-07-03T13:20:37;96060.88;;;33.65;nan
41222;BME280;26952;42.884;23.918;2022-07-03T13:23:04;96061.75;;;33.75;nan
41222;BME280;26952;42.884;23.918;2022-07-03T13:25:31;96055.13;;;33.98;nan
41222;BME280;26952;42.884;23.918;2022-07-03T13:28:09;96053.03;;;34.03;nan
41222;BME280;26952;42.884;23.918;2022-07-03T13:30:35;96061.84;;;34.14;nan
41222;BME280;26952;42.884;23.918;2022-07-03T13:33:02;96063.56;;;34.40;nan
41222;BME280;26952;42.884;23.918;2022-07-03T13:35:28;96058.00;;;33.93;nan
41222;BME280;26952;42.884;23.918;2022-07-03T13:37:53;96058.97;;;32.95;nan
41222;BME280;26952;42.884;23.918;2022-07-03T13:40:19;96050.53;;;32.91;nan
41222;BME280;26952;42.884;23.918;2022-07-03T13:42:44;96050.81;;;33.03;nan
41222;BME280;26952;42.884;23.918;2022-07-03T13:45:10;96046.19;;;32.90;nan
41222;BME280;26952;42.884;23.918;2022-07-03T13:47:36;96041.41;;;32.69;nan
41222;BME280;26952;42.884;23.918;2022-07-03T13:50:01;96041.97;;;32.44;nan
41222;BME280;26952;42.884;23.918;2022-07-03T13:52:27;96041.91;;;32.03;nan
41222;BME280;26952;42.884;23.918;2022-07-03T13:54:52;96047.59;;;31.93;nan
41222;BME280;26952;42.884;23.918;2022-07-03T13:57:17;96032.25;;;31.60;nan
41222;BME280;26952;42.884;23.918;2022-07-03T13:59:43;96036.28;;;31.49;nan
41222;BME280;26952;42.884;23.918;2022-07-03T14:02:08;96031.84;;;31.85;nan
41222;BME280;26952;42.884;23.918;2022-07-03T14:04:35;96032.19;;;31.97;nan
41222;BME280;26952;42.884;23.918;2022-07-03T14:07:00;96023.84;;;32.02;nan
41222;BME280;26952;42.884;23.918;2022-07-03T14:09:26;96020.59;;;32.00;nan
41222;BME280;26952;42.884;23.918;2022-07-03T14:11:51;96023.44;;;31.95;nan
41222;BME280;26952;42.884;23.918;2022-07-03T14:14:16;96013.28;;;32.09;nan
41222;BME280;26952;42.884;23.918;2022-07-03T14:16:42;96011.88;;;32.25;nan
41222;BME280;26952;42.884;23.918;2022-07-03T14:19:07;96021.91;;;31.89;nan
41222;BME280;26952;42.884;23.918;2022-07-03T14:21:33;96010.47;;;32.14;nan
41222;BME280;26952;42.884;23.918;2022-07-03T14:24:00;96009.53;;;32.32;nan